Time,TemperatureF,DewpointF,PressureIn,WindDirection,WindDirectionDegrees,WindSpeedMPH,WindSpeedGustMPH,Humidity,HourlyPrecipIn,Conditions,Clouds,dailyrainin,SoftwareType,DateUTC
2013-07-27 00:01:00,65.1,62.7,29.96,SW,225,0.0,1.1,92,0.00,RA,,0.00,WeatherDisplay:10.37,2013-07-27 04:01:00,
2013-07-27 00:02:00,65.1,62.7,29.96,SSW,202,0.0,0.0,92,0.00,RA,,0.00,WeatherDisplay:10.37,2013-07-27 04:02:00,
2013-07-27 00:07:00,64.9,62.6,29.96,WSW,248,0.0,1.1,92,0.00,RA,,0.00,WeatherDisplay:10.37,2013-07-27 04:07:00,
2013-07-27 00:12:00,64.9,62.6,29.96,SW,225,0.0,1.1,92,0.00,CLR,,0.00,WeatherDisplay:10.37,2013-07-27 04:12:00,
2013-07-27 00:17:00,64.9,62.6,29.96,SW,225,0.5,0.5,92,0.00,CLR,,0.00,WeatherDisplay:10.37,2013-07-27 04:17:00,
2013-07-27 00:22:00,64.8,62.4,29.96,WNW,292,0.0,0.0,92,0.00,CLR,,0.00,WeatherDisplay:10.37,2013-07-27 04:22:00,
2013-07-27 00:27:00,64.8,62.4,29.96,SW,225,0.0,0.0,92,0.00,CLR,,0.00,WeatherDisplay:10.37,2013-07-27 04:27:00,
2013-07-27 00:32:00,64.8,62.4,29.96,SSW,202,0.0,0.0,92,0.00,CLR,,0.00,WeatherDisplay:10.37,2013-07-27 04:32:00,
2013-07-27 00:37:00,64.4,62.0,29.97,West,270,0.5,1.1,92,0.00,CLR,,0.00,WeatherDisplay:10.37,2013-07-27 04:37:00,
2013-07-27 00:42:00,64.4,62.0,29.97,SW,225,0.0,0.0,92,0.00,CLR,,0.00,WeatherDisplay:10.37,2013-07-27 04:42:00,
2013-07-27 00:47:00,64.4,62.0,29.97,NW,315,0.0,0.0,92,0.00,CLR,,0.00,WeatherDisplay:10.37,2013-07-27 04:47:00,
2013-07-27 00:52:00,64.2,61.8,29.97,NW,315,0.5,0.5,92,0.00,CLR,,0.00,WeatherDisplay:10.37,2013-07-27 04:52:00,
2013-07-27 00:57:00,64.0,61.7,29.97,SW,225,0.0,1.1,92,0.00,CLR,,0.00,WeatherDisplay:10.37,2013-07-27 04:57:00,
2013-07-27 01:02:00,64.0,61.7,29.97,SSW,202,0.9,1.1,92,0.01,RA,,0.01,WeatherDisplay:10.37,2013-07-27 05:02:00,
2013-07-27 01:07:00,63.9,61.5,29.97,SSW,202,0.0,0.0,92,0.01,RA,,0.01,WeatherDisplay:10.37,2013-07-27 05:07:00,
2013-07-27 01:12:00,63.7,61.3,29.96,WSW,248,0.0,0.0,92,0.01,CLR,,0.01,WeatherDisplay:10.37,2013-07-27 05:12:00,
2013-07-27 01:17:00,63.7,61.3,29.96,WSW,248,0.0,0.0,92,0.01,CLR,,0.01,WeatherDisplay:10.37,2013-07-27 05:17:00,
2013-07-27 01:22:00,63.5,61.1,29.97,SW,225,0.5,0.5,92,0.01,CLR,,0.01,WeatherDisplay:10.37,2013-07-27 05:22:00,
2013-07-27 01:27:00,63.3,61.0,29.97,SW,225,0.0,0.0,92,0.01,CLR,,0.01,WeatherDisplay:10.37,2013-07-27 05:27:00,
2013-07-27 01:32:00,63.3,61.0,29.97,SW,225,0.0,0.0,92,0.01,CLR,,0.01,WeatherDisplay:10.37,2013-07-27 05:32:00,
2013-07-27 01:37:00,63.1,60.8,29.97,SW,225,0.0,0.0,92,0.01,CLR,,0.01,WeatherDisplay:10.37,2013-07-27 05:37:00,
2013-07-27 01:42:00,63.1,60.8,29.97,SSW,202,0.0,0.0,92,0.01,CLR,,0.01,WeatherDisplay:10.37,2013-07-27 05:42:00,
2013-07-27 01:47:00,63.0,60.6,29.97,SW,225,0.2,1.1,92,0.01,CLR,,0.01,WeatherDisplay:10.37,2013-07-27 05:47:00,
2013-07-27 01:52:00,63.0,60.6,29.97,SW,225,0.2,0.2,92,0.01,CLR,,0.01,WeatherDisplay:10.37,2013-07-27 05:52:00,
2013-07-27 01:57:00,63.0,60.6,29.96,SSW,202,0.0,0.0,92,0.01,CLR,,0.01,WeatherDisplay:10.37,2013-07-27 05:57:00,
2013-07-27 02:02:00,63.0,60.6,29.96,SW,225,0.5,0.5,92,0.00,CLR,,0.01,WeatherDisplay:10.37,2013-07-27 06:02:00,
2013-07-27 02:07:00,63.1,60.8,29.96,SSW,202,1.1,1.1,92,0.00,CLR,,0.01,WeatherDisplay:10.37,2013-07-27 06:07:00,
2013-07-27 02:12:00,63.3,61.0,29.96,SW,225,0.2,1.1,92,0.00,CLR,,0.01,WeatherDisplay:10.37,2013-07-27 06:12:00,
2013-07-27 02:17:00,63.3,61.0,29.96,SSW,202,1.1,1.1,92,0.00,CLR,,0.01,WeatherDisplay:10.37,2013-07-27 06:17:00,
2013-07-27 02:22:00,63.3,61.0,29.97,WNW,292,0.0,0.0,92,0.00,CLR,,0.01,WeatherDisplay:10.37,2013-07-27 06:22:00,
2013-07-27 02:27:00,63.7,61.3,29.97,SW,225,0.0,0.0,92,0.00,CLR,,0.01,WeatherDisplay:10.37,2013-07-27 06:27:00,
2013-07-27 02:32:00,63.7,61.3,29.97,SSW,202,0.2,1.1,92,0.00,CLR,,0.01,WeatherDisplay:10.37,2013-07-27 06:32:00,
2013-07-27 02:37:00,63.7,61.3,29.97,SW,225,0.0,2.3,92,0.00,CLR,,0.01,WeatherDisplay:10.37,2013-07-27 06:37:00,
2013-07-27 02:42:00,63.7,61.3,29.97,WSW,248,1.1,1.1,92,0.00,CLR,,0.01,WeatherDisplay:10.37,2013-07-27 06:42:00,
2013-07-27 02:47:00,63.7,61.3,29.97,NW,315,0.0,0.0,92,0.00,CLR,,0.01,WeatherDisplay:10.37,2013-07-27 06:47:00,
2013-07-27 02:52:00,63.9,61.5,29.96,NW,315,0.5,2.3,92,0.00,CLR,,0.01,WeatherDisplay:10.37,2013-07-27 06:52:00,
2013-07-27 02:57:00,64.0,61.7,29.96,West,270,0.2,0.2,92,0.00,CLR,,0.01,WeatherDisplay:10.37,2013-07-27 06:57:00,
2013-07-27 03:02:00,64.0,62.0,29.96,North,0,0.5,2.3,93,0.00,CLR,,0.01,WeatherDisplay:10.37,2013-07-27 07:02:00,
2013-07-27 03:07:00,64.2,62.2,29.96,South,180,1.1,2.3,93,0.00,CLR,,0.01,WeatherDisplay:10.37,2013-07-27 07:07:00,
2013-07-27 03:12:00,64.2,62.2,29.96,SW,225,0.2,3.5,93,0.00,CLR,,0.01,WeatherDisplay:10.37,2013-07-27 07:12:00,
2013-07-27 03:17:00,64.4,62.3,29.96,West,270,1.4,1.4,93,0.00,CLR,,0.01,WeatherDisplay:10.37,2013-07-27 07:17:00,
2013-07-27 03:22:00,64.6,62.5,29.96,SSW,202,1.4,2.3,93,0.00,CLR,,0.01,WeatherDisplay:10.37,2013-07-27 07:22:00,
2013-07-27 03:27:00,64.6,62.5,29.97,SW,225,2.2,2.2,93,0.00,CLR,,0.01,WeatherDisplay:10.37,2013-07-27 07:27:00,
2013-07-27 03:32:00,64.6,62.5,29.97,NNW,338,0.2,2.3,93,0.00,CLR,,0.01,WeatherDisplay:10.37,2013-07-27 07:32:00,
2013-07-27 03:37:00,64.8,62.7,29.97,WNW,292,0.5,0.5,93,0.00,CLR,,0.01,WeatherDisplay:10.37,2013-07-27 07:37:00,
2013-07-27 03:42:00,64.8,62.7,29.97,SW,225,0.5,1.1,93,0.00,CLR,,0.01,WeatherDisplay:10.37,2013-07-27 07:42:00,
2013-07-27 03:47:00,64.9,62.9,29.97,West,270,1.1,1.1,93,0.00,CLR,,0.01,WeatherDisplay:10.37,2013-07-27 07:47:00,
2013-07-27 03:52:00,65.1,63.0,29.97,SW,225,2.4,2.4,93,0.00,CLR,,0.01,WeatherDisplay:10.37,2013-07-27 07:52:00,
2013-07-27 03:57:00,65.1,63.0,29.97,SW,225,0.5,0.0,93,0.00,CLR,,0.01,WeatherDisplay:10.37,2013-07-27 07:57:00,
2013-07-27 04:02:00,65.3,63.2,29.97,SW,225,0.5,1.1,93,0.00,CLR,,0.01,WeatherDisplay:10.37,2013-07-27 08:02:00,
2013-07-27 04:07:00,65.1,63.0,29.97,SW,225,1.1,0.0,93,0.00,CLR,,0.01,WeatherDisplay:10.37,2013-07-27 08:07:00,
2013-07-27 04:12:00,65.3,63.2,29.98,SSW,202,1.8,2.3,93,0.00,CLR,,0.01,WeatherDisplay:10.37,2013-07-27 08:12:00,
2013-07-27 04:17:00,65.3,63.2,29.98,SW,225,0.0,1.1,93,0.00,CLR,,0.01,WeatherDisplay:10.37,2013-07-27 08:17:00,
2013-07-27 04:22:00,65.3,63.2,29.98,WSW,248,0.5,1.1,93,0.00,CLR,,0.01,WeatherDisplay:10.37,2013-07-27 08:22:00,
2013-07-27 04:27:00,65.3,63.2,29.98,SW,225,0.9,1.1,93,0.00,CLR,,0.01,WeatherDisplay:10.37,2013-07-27 08:27:00,
2013-07-27 04:32:00,65.5,63.4,29.98,SW,225,0.2,2.3,93,0.00,CLR,,0.01,WeatherDisplay:10.37,2013-07-27 08:32:00,
2013-07-27 04:37:00,65.5,63.4,29.98,SW,225,0.5,2.3,93,0.00,CLR,,0.01,WeatherDisplay:10.37,2013-07-27 08:37:00,
2013-07-27 04:42:00,65.7,63.6,29.98,WSW,248,0.5,2.3,93,0.00,CLR,,0.01,WeatherDisplay:10.37,2013-07-27 08:42:00,
2013-07-27 04:47:00,65.5,63.4,29.98,SW,225,0.0,2.3,93,0.00,CLR,,0.01,WeatherDisplay:10.37,2013-07-27 08:47:00,
2013-07-27 04:52:00,65.5,63.4,29.98,WSW,248,0.0,1.1,93,0.00,CLR,,0.01,WeatherDisplay:10.37,2013-07-27 08:52:00,
2013-07-27 04:57:00,65.5,63.4,29.98,SW,225,1.4,1.4,93,0.00,CLR,,0.01,WeatherDisplay:10.37,2013-07-27 08:57:00,
2013-07-27 05:02:00,65.3,63.2,29.98,West,270,0.0,0.0,93,0.00,CLR,,0.01,WeatherDisplay:10.37,2013-07-27 09:02:00,
2013-07-27 05:07:00,65.1,63.0,29.98,WSW,248,0.0,0.0,93,0.00,CLR,,0.01,WeatherDisplay:10.37,2013-07-27 09:07:00,
2013-07-27 05:12:00,65.1,63.0,29.98,WSW,248,0.0,0.0,93,0.00,CLR,,0.01,WeatherDisplay:10.37,2013-07-27 09:12:00,
2013-07-27 05:17:00,65.1,63.0,29.98,WSW,248,1.1,1.1,93,0.00,CLR,,0.01,WeatherDisplay:10.37,2013-07-27 09:17:00,
2013-07-27 05:22:00,64.9,62.9,29.98,SSW,202,0.5,0.5,93,0.00,CLR,,0.01,WeatherDisplay:10.37,2013-07-27 09:22:00,
2013-07-27 05:27:00,64.8,62.7,29.98,WNW,292,0.5,2.3,93,0.00,CLR,,0.01,WeatherDisplay:10.37,2013-07-27 09:27:00,
2013-07-27 05:32:00,64.8,62.7,29.98,SW,225,0.0,0.0,93,0.00,CLR,,0.01,WeatherDisplay:10.37,2013-07-27 09:32:00,
2013-07-27 05:37:00,64.8,62.7,29.98,SW,225,0.0,1.1,93,0.00,CLR,,0.01,WeatherDisplay:10.37,2013-07-27 09:37:00,
2013-07-27 05:42:00,64.8,62.7,29.99,West,270,0.5,1.1,93,0.00,CLR,,0.01,WeatherDisplay:10.37,2013-07-27 09:42:00,
2013-07-27 05:47:00,64.9,62.9,29.99,West,270,0.0,2.3,93,0.00,CLR,,0.01,WeatherDisplay:10.37,2013-07-27 09:47:00,
2013-07-27 05:52:00,65.1,63.0,29.99,SSW,202,0.5,1.1,93,0.00,CLR,,0.01,WeatherDisplay:10.37,2013-07-27 09:52:00,
2013-07-27 05:57:00,65.1,63.0,29.99,WSW,248,0.5,1.1,93,0.00,CLR,,0.01,WeatherDisplay:10.37,2013-07-27 09:57:00,
2013-07-27 06:02:00,65.3,63.2,30.00,SW,225,0.2,1.1,93,0.00,CLR,,0.01,WeatherDisplay:10.37,2013-07-27 10:02:00,
2013-07-27 06:07:00,65.5,63.4,29.99,West,270,0.5,1.1,93,0.00,CLR,,0.01,WeatherDisplay:10.37,2013-07-27 10:07:00,
2013-07-27 06:12:00,65.5,63.4,29.99,SW,225,0.2,0.2,93,0.00,CLR,,0.01,WeatherDisplay:10.37,2013-07-27 10:12:00,
2013-07-27 06:17:00,65.5,63.4,29.99,SW,225,1.1,0.0,93,0.00,CLR,,0.01,WeatherDisplay:10.37,2013-07-27 10:17:00,
2013-07-27 06:22:00,65.7,63.6,29.99,SW,225,0.0,0.0,93,0.00,CLR,,0.01,WeatherDisplay:10.37,2013-07-27 10:22:00,
2013-07-27 06:27:00,65.8,63.8,29.99,WNW,292,0.0,0.0,93,0.00,CLR,,0.01,WeatherDisplay:10.37,2013-07-27 10:27:00,
2013-07-27 06:32:00,65.8,63.8,29.99,WSW,248,0.5,1.1,93,0.00,CLR,,0.01,WeatherDisplay:10.37,2013-07-27 10:32:00,
2013-07-27 06:37:00,66.2,64.1,29.99,SW,225,0.7,0.7,93,0.00,CLR,,0.01,WeatherDisplay:10.37,2013-07-27 10:37:00,
2013-07-27 06:42:00,66.4,64.6,30.00,SW,225,1.8,1.8,94,0.00,CLR,,0.01,WeatherDisplay:10.37,2013-07-27 10:42:00,
2013-07-27 06:47:00,66.6,64.8,29.99,South,180,2.6,2.6,94,0.00,CLR,,0.01,WeatherDisplay:10.37,2013-07-27 10:47:00,
2013-07-27 06:52:00,66.7,65.0,30.00,SW,225,0.7,2.3,94,0.00,CLR,,0.01,WeatherDisplay:10.37,2013-07-27 10:52:00,
2013-07-27 06:57:00,66.9,65.1,30.00,West,270,0.0,2.3,94,0.00,CLR,,0.01,WeatherDisplay:10.37,2013-07-27 10:57:00,
2013-07-27 07:02:00,67.3,65.5,30.00,WNW,292,1.1,2.3,94,0.00,CLR,,0.01,WeatherDisplay:10.37,2013-07-27 11:02:00,
2013-07-27 07:07:00,67.3,65.5,30.00,SW,225,0.2,1.1,94,0.00,CLR,,0.01,WeatherDisplay:10.37,2013-07-27 11:07:00,
2013-07-27 07:12:00,67.6,65.9,30.00,SW,225,1.6,1.6,94,0.00,CLR,,0.01,WeatherDisplay:10.37,2013-07-27 11:12:00,
2013-07-27 07:17:00,67.8,66.0,30.00,SSW,202,0.7,1.1,94,0.00,CLR,,0.01,WeatherDisplay:10.37,2013-07-27 11:17:00,
2013-07-27 07:22:00,68.0,66.2,30.00,West,270,1.8,2.3,94,0.00,CLR,,0.01,WeatherDisplay:10.37,2013-07-27 11:22:00,
2013-07-27 07:27:00,68.4,66.6,30.00,SW,225,1.1,3.5,94,0.00,CLR,,0.01,WeatherDisplay:10.37,2013-07-27 11:27:00,
2013-07-27 07:32:00,68.5,66.7,30.00,WSW,248,0.2,1.1,94,0.00,CLR,,0.01,WeatherDisplay:10.37,2013-07-27 11:32:00,
2013-07-27 07:37:00,68.7,66.9,30.00,SW,225,0.0,0.0,94,0.00,CLR,,0.01,WeatherDisplay:10.37,2013-07-27 11:37:00,
2013-07-27 07:42:00,69.1,67.3,30.00,SW,225,1.8,1.8,94,0.00,CLR,,0.01,WeatherDisplay:10.37,2013-07-27 11:42:00,
2013-07-27 07:47:00,69.1,67.3,30.00,SSW,202,0.5,0.0,94,0.00,CLR,,0.01,WeatherDisplay:10.37,2013-07-27 11:47:00,
2013-07-27 07:52:00,69.4,67.6,30.00,WSW,248,1.1,1.1,94,0.00,CLR,,0.01,WeatherDisplay:10.37,2013-07-27 11:52:00,
2013-07-27 07:57:00,69.4,67.6,30.00,NNW,338,0.0,1.1,94,0.00,CLR,,0.01,WeatherDisplay:10.37,2013-07-27 11:57:00,
2013-07-27 08:02:00,69.8,68.0,30.00,SW,225,0.0,2.3,94,0.00,CLR,,0.01,WeatherDisplay:10.37,2013-07-27 12:02:00,
2013-07-27 08:07:00,70.2,68.4,30.00,WNW,292,0.2,0.0,94,0.00,CLR,,0.01,WeatherDisplay:10.37,2013-07-27 12:07:00,
2013-07-27 08:12:00,70.3,68.5,30.00,WSW,248,0.9,1.1,94,0.00,CLR,,0.01,WeatherDisplay:10.37,2013-07-27 12:12:00,
2013-07-27 08:17:00,70.9,69.1,30.01,NNW,338,0.0,0.0,94,0.00,CLR,,0.01,WeatherDisplay:10.37,2013-07-27 12:17:00,
2013-07-27 08:22:00,71.2,69.1,30.01,SSW,202,1.1,4.6,93,0.00,CLR,,0.01,WeatherDisplay:10.37,2013-07-27 12:22:00,
2013-07-27 08:27:00,71.6,69.5,30.01,SSW,202,1.1,1.1,93,0.00,CLR,,0.01,WeatherDisplay:10.37,2013-07-27 12:27:00,
2013-07-27 08:32:00,71.8,69.6,30.01,NE,45,1.8,1.8,93,0.00,CLR,,0.01,WeatherDisplay:10.37,2013-07-27 12:32:00,
2013-07-27 08:37:00,71.8,69.6,30.01,NE,45,1.8,2.3,93,0.00,CLR,,0.01,WeatherDisplay:10.37,2013-07-27 12:37:00,
2013-07-27 08:42:00,72.5,70.4,30.01,West,270,0.5,0.5,93,0.00,CLR,,0.01,WeatherDisplay:10.37,2013-07-27 12:42:00,
2013-07-27 08:47:00,73.2,70.8,30.01,SW,225,1.8,4.6,92,0.00,CLR,,0.01,WeatherDisplay:10.37,2013-07-27 12:47:00,
2013-07-27 08:52:00,74.1,71.6,30.01,SW,225,1.4,1.4,92,0.00,CLR,,0.01,WeatherDisplay:10.37,2013-07-27 12:52:00,
2013-07-27 08:57:00,74.7,71.9,30.01,SW,225,0.5,1.1,91,0.00,CLR,,0.01,WeatherDisplay:10.37,2013-07-27 12:57:00,
2013-07-27 09:02:00,74.7,71.2,30.01,SW,225,1.6,2.3,89,0.00,CLR,,0.01,WeatherDisplay:10.37,2013-07-27 13:02:00,
2013-07-27 09:07:00,74.7,70.5,30.01,South,180,1.1,2.3,87,0.00,CLR,,0.01,WeatherDisplay:10.37,2013-07-27 13:07:00,
2013-07-27 09:12:00,74.7,70.9,30.01,SW,225,0.9,3.5,88,0.00,CLR,,0.01,WeatherDisplay:10.37,2013-07-27 13:12:00,
2013-07-27 09:17:00,74.5,70.4,30.01,SW,225,1.1,2.3,87,0.00,CLR,,0.01,WeatherDisplay:10.37,2013-07-27 13:17:00,
2013-07-27 09:22:00,74.7,70.5,30.01,SSW,202,0.9,4.6,87,0.00,CLR,,0.01,WeatherDisplay:10.37,2013-07-27 13:22:00,
2013-07-27 09:27:00,75.0,70.5,30.01,SW,225,1.8,1.8,86,0.00,CLR,,0.01,WeatherDisplay:10.37,2013-07-27 13:27:00,
2013-07-27 09:32:00,75.6,71.1,30.01,NW,315,1.4,1.4,86,0.00,CLR,,0.01,WeatherDisplay:10.37,2013-07-27 13:32:00,
2013-07-27 09:37:00,75.9,71.4,30.01,NE,45,0.9,1.1,86,0.00,CLR,,0.01,WeatherDisplay:10.37,2013-07-27 13:37:00,
2013-07-27 09:42:00,75.9,71.1,30.01,WSW,248,0.5,1.1,85,0.00,CLR,,0.01,WeatherDisplay:10.37,2013-07-27 13:42:00,
2013-07-27 09:47:00,75.7,70.9,30.01,WSW,248,0.5,0.5,85,0.00,CLR,,0.01,WeatherDisplay:10.37,2013-07-27 13:47:00,
2013-07-27 09:52:00,76.1,70.9,30.01,North,0,0.5,1.1,84,0.00,CLR,,0.01,WeatherDisplay:10.37,2013-07-27 13:52:00,
2013-07-27 09:57:00,76.6,71.8,30.01,SSW,202,4.7,4.7,85,0.00,CLR,,0.01,WeatherDisplay:10.37,2013-07-27 13:57:00,
2013-07-27 10:02:00,77.0,70.7,30.01,WSW,248,2.4,2.4,81,0.00,CLR,,0.01,WeatherDisplay:10.37,2013-07-27 14:02:00,
2013-07-27 10:07:00,77.7,71.4,30.01,SSE,158,1.8,4.6,81,0.00,CLR,,0.01,WeatherDisplay:10.37,2013-07-27 14:07:00,
2013-07-27 10:12:00,78.1,71.8,30.01,WSW,248,1.4,1.4,81,0.00,CLR,,0.01,WeatherDisplay:10.37,2013-07-27 14:12:00,
2013-07-27 10:17:00,78.3,71.9,30.01,SSW,202,0.5,1.1,81,0.00,CLR,,0.01,WeatherDisplay:10.37,2013-07-27 14:17:00,
2013-07-27 10:22:00,78.1,71.8,30.01,WNW,292,0.7,1.1,81,0.00,CLR,,0.01,WeatherDisplay:10.37,2013-07-27 14:22:00,
2013-07-27 10:27:00,78.6,72.3,30.01,SW,225,0.7,3.5,81,0.00,CLR,,0.01,WeatherDisplay:10.37,2013-07-27 14:27:00,
2013-07-27 10:32:00,78.8,71.0,30.01,WNW,292,1.1,3.5,77,0.00,CLR,,0.01,WeatherDisplay:10.37,2013-07-27 14:32:00,
2013-07-27 10:37:00,78.8,71.4,30.01,SSW,202,0.5,2.3,78,0.00,CLR,,0.01,WeatherDisplay:10.37,2013-07-27 14:37:00,
2013-07-27 10:42:00,79.0,71.9,30.01,SSW,202,1.8,4.6,79,0.00,CLR,,0.01,WeatherDisplay:10.37,2013-07-27 14:42:00,
2013-07-27 10:47:00,79.3,71.5,30.01,West,270,0.7,2.3,77,0.00,CLR,,0.01,WeatherDisplay:10.37,2013-07-27 14:47:00,
2013-07-27 10:52:00,79.9,71.6,30.01,South,180,0.9,6.9,76,0.00,CLR,,0.01,WeatherDisplay:10.37,2013-07-27 14:52:00,
2013-07-27 10:57:00,80.1,71.8,30.01,West,270,1.1,4.6,76,0.00,CLR,,0.01,WeatherDisplay:10.37,2013-07-27 14:57:00,
2013-07-27 11:02:00,80.2,72.0,30.02,SSW,202,4.3,4.3,76,0.00,CLR,,0.01,WeatherDisplay:10.37,2013-07-27 15:02:00,
2013-07-27 11:07:00,80.4,71.8,30.01,WSW,248,2.2,4.6,75,0.00,CLR,,0.01,WeatherDisplay:10.37,2013-07-27 15:07:00,
2013-07-27 11:12:00,80.2,71.6,30.01,SW,225,1.4,3.5,75,0.00,CLR,,0.01,WeatherDisplay:10.37,2013-07-27 15:12:00,
2013-07-27 11:17:00,80.1,71.4,30.01,WSW,248,3.8,3.8,75,0.00,CLR,,0.01,WeatherDisplay:10.37,2013-07-27 15:17:00,
2013-07-27 11:22:00,80.4,72.2,30.01,SSW,202,0.7,2.3,76,0.00,CLR,,0.01,WeatherDisplay:10.37,2013-07-27 15:22:00,
2013-07-27 11:27:00,80.8,72.1,30.02,South,180,2.4,6.9,75,0.00,CLR,,0.01,WeatherDisplay:10.37,2013-07-27 15:27:00,
2013-07-27 11:32:00,81.0,71.9,30.01,South,180,6.0,6.0,74,0.00,CLR,,0.01,WeatherDisplay:10.37,2013-07-27 15:32:00,
2013-07-27 11:37:00,80.8,71.7,30.02,South,180,5.2,6.9,74,0.00,CLR,,0.01,WeatherDisplay:10.37,2013-07-27 15:37:00,
2013-07-27 11:42:00,80.6,70.7,30.01,SSE,158,9.0,9.2,72,0.00,CLR,,0.01,WeatherDisplay:10.37,2013-07-27 15:42:00,
2013-07-27 11:47:00,81.0,72.3,30.02,SSW,202,5.6,5.8,75,0.00,CLR,,0.01,WeatherDisplay:10.37,2013-07-27 15:47:00,
2013-07-27 11:52:00,81.3,72.6,30.01,South,180,1.4,2.3,75,0.00,CLR,,0.01,WeatherDisplay:10.37,2013-07-27 15:52:00,
2013-07-27 11:57:00,81.7,72.2,30.01,SSE,158,2.9,6.9,73,0.00,CLR,,0.01,WeatherDisplay:10.37,2013-07-27 15:57:00,
2013-07-27 12:03:00,81.7,71.8,30.01,South,180,1.6,4.6,72,0.00,CLR,,0.01,WeatherDisplay:10.37,2013-07-27 16:03:00,
2013-07-27 12:08:00,82.0,71.3,30.01,South,180,4.3,4.3,70,0.00,CLR,,0.01,WeatherDisplay:10.37,2013-07-27 16:08:00,
2013-07-27 12:13:00,82.0,71.3,30.01,South,180,5.6,5.6,70,0.00,CLR,,0.01,WeatherDisplay:10.37,2013-07-27 16:13:00,
2013-07-27 12:18:00,82.2,72.3,30.01,SSW,202,2.6,2.6,72,0.00,CLR,,0.01,WeatherDisplay:10.37,2013-07-27 16:18:00,
2013-07-27 12:23:00,82.4,72.9,30.01,SSW,202,1.4,2.3,73,0.00,CLR,,0.01,WeatherDisplay:10.37,2013-07-27 16:23:00,
2013-07-27 12:28:00,82.6,72.6,30.01,SE,135,1.8,4.6,72,0.00,CLR,,0.01,WeatherDisplay:10.37,2013-07-27 16:28:00,
2013-07-27 12:33:00,82.8,72.0,30.01,South,180,4.7,4.7,70,0.00,CLR,,0.01,WeatherDisplay:10.37,2013-07-27 16:33:00,
2013-07-27 12:38:00,82.8,71.5,30.01,SW,225,3.3,6.9,69,0.00,CLR,,0.01,WeatherDisplay:10.37,2013-07-27 16:38:00,
2013-07-27 12:43:00,82.6,71.8,30.00,SSW,202,2.4,8.1,70,0.00,CLR,,0.01,WeatherDisplay:10.37,2013-07-27 16:43:00,
2013-07-27 12:48:00,82.9,71.7,30.00,South,180,4.5,8.1,69,0.00,CLR,,0.01,WeatherDisplay:10.37,2013-07-27 16:48:00,
2013-07-27 12:53:00,83.1,72.3,30.00,SSW,202,6.2,6.9,70,0.00,CLR,,0.01,WeatherDisplay:10.37,2013-07-27 16:53:00,
2013-07-27 12:58:00,83.3,70.8,30.00,SSW,202,2.9,8.1,66,0.00,CLR,,0.01,WeatherDisplay:10.37,2013-07-27 16:58:00,
2013-07-27 13:03:00,83.5,70.5,30.00,SSW,202,4.0,4.6,65,0.00,CLR,,0.01,WeatherDisplay:10.37,2013-07-27 17:03:00,
2013-07-27 13:08:00,83.5,70.5,30.00,SW,225,1.8,5.8,65,0.00,CLR,,0.01,WeatherDisplay:10.37,2013-07-27 17:08:00,
2013-07-27 13:13:00,83.8,71.7,30.00,SSE,158,1.1,8.1,67,0.00,CLR,,0.01,WeatherDisplay:10.37,2013-07-27 17:13:00,
2013-07-27 13:18:00,83.8,69.9,30.01,South,180,2.2,6.9,63,0.00,CLR,,0.01,WeatherDisplay:10.37,2013-07-27 17:18:00,
2013-07-27 13:23:00,83.8,71.3,30.00,South,180,0.5,3.5,66,0.00,CLR,,0.01,WeatherDisplay:10.37,2013-07-27 17:23:00,
2013-07-27 13:28:00,84.0,71.0,30.00,SW,225,6.7,6.7,65,0.00,CLR,,0.01,WeatherDisplay:10.37,2013-07-27 17:28:00,
2013-07-27 13:33:00,84.2,69.8,30.00,SW,225,1.6,6.9,62,0.00,CLR,,0.01,WeatherDisplay:10.37,2013-07-27 17:33:00,
2013-07-27 13:38:00,84.2,70.7,30.00,SW,225,6.7,6.7,64,0.00,CLR,,0.01,WeatherDisplay:10.37,2013-07-27 17:38:00,
2013-07-27 13:43:00,84.2,70.7,30.00,SSW,202,4.5,4.6,64,0.00,CLR,,0.01,WeatherDisplay:10.37,2013-07-27 17:43:00,
2013-07-27 13:48:00,84.4,69.9,30.00,SW,225,3.3,3.5,62,0.00,CLR,,0.01,WeatherDisplay:10.37,2013-07-27 17:48:00,
2013-07-27 13:53:00,84.6,70.6,30.00,SSW,202,5.4,5.4,63,0.00,CLR,,0.01,WeatherDisplay:10.37,2013-07-27 17:53:00,
2013-07-27 13:58:00,84.6,69.1,30.00,SSW,202,3.3,4.6,60,0.00,CLR,,0.01,WeatherDisplay:10.37,2013-07-27 17:58:00,
2013-07-27 14:03:00,84.6,69.1,30.00,SW,225,6.2,6.2,60,0.00,CLR,,0.01,WeatherDisplay:10.37,2013-07-27 18:03:00,
2013-07-27 14:08:00,84.4,69.9,30.00,SSW,202,3.1,3.1,62,0.00,CLR,,0.01,WeatherDisplay:10.37,2013-07-27 18:08:00,
2013-07-27 14:13:00,84.4,69.5,30.00,SSW,202,4.3,6.9,61,0.00,CLR,,0.01,WeatherDisplay:10.37,2013-07-27 18:13:00,
2013-07-27 14:18:00,84.4,68.0,30.00,SW,225,1.8,8.1,58,0.00,CLR,,0.01,WeatherDisplay:10.37,2013-07-27 18:18:00,
2013-07-27 14:23:00,84.4,69.5,29.99,SSW,202,2.4,3.5,61,0.00,CLR,,0.01,WeatherDisplay:10.37,2013-07-27 18:23:00,
2013-07-27 14:28:00,84.4,69.0,29.99,SSE,158,1.8,4.6,60,0.00,CLR,,0.01,WeatherDisplay:10.37,2013-07-27 18:28:00,
2013-07-27 14:33:00,84.6,69.6,30.00,South,180,2.0,4.6,61,0.00,CLR,,0.01,WeatherDisplay:10.37,2013-07-27 18:33:00,
2013-07-27 14:38:00,84.6,68.7,30.00,SSE,158,9.4,9.4,59,0.00,CLR,,0.01,WeatherDisplay:10.37,2013-07-27 18:38:00,
2013-07-27 14:43:00,84.2,69.3,30.00,SSW,202,7.6,7.6,61,0.00,CLR,,0.01,WeatherDisplay:10.37,2013-07-27 18:43:00,
2013-07-27 14:48:00,83.8,69.0,30.00,SW,225,6.2,9.2,61,0.00,CLR,,0.01,WeatherDisplay:10.37,2013-07-27 18:48:00,
2013-07-27 14:53:00,83.7,69.7,30.00,WSW,248,2.9,6.9,63,0.00,CLR,,0.01,WeatherDisplay:10.37,2013-07-27 18:53:00,
2013-07-27 14:58:00,83.5,70.9,30.00,SW,225,4.0,5.8,66,0.00,CLR,,0.01,WeatherDisplay:10.37,2013-07-27 18:58:00,
2013-07-27 15:03:00,83.5,70.5,30.00,SSW,202,5.6,6.9,65,0.00,CLR,,0.01,WeatherDisplay:10.37,2013-07-27 19:03:00,
2013-07-27 15:08:00,83.3,71.2,30.00,South,180,1.8,3.5,67,0.00,CLR,,0.01,WeatherDisplay:10.37,2013-07-27 19:08:00,
2013-07-27 15:13:00,83.5,71.4,29.99,SW,225,4.3,5.8,67,0.00,CLR,,0.01,WeatherDisplay:10.37,2013-07-27 19:13:00,
2013-07-27 15:18:00,83.5,70.9,29.99,SSW,202,5.9,8.1,66,0.00,CLR,,0.01,WeatherDisplay:10.37,2013-07-27 19:18:00,
2013-07-27 15:23:00,83.5,71.4,29.99,SE,135,1.8,3.5,67,0.00,CLR,,0.01,WeatherDisplay:10.37,2013-07-27 19:23:00,
2013-07-27 15:28:00,83.5,70.5,29.99,SSW,202,4.0,4.6,65,0.00,CLR,,0.01,WeatherDisplay:10.37,2013-07-27 19:28:00,
2013-07-27 15:33:00,83.7,71.5,29.99,SW,225,4.5,4.5,67,0.00,CLR,,0.01,WeatherDisplay:10.37,2013-07-27 19:33:00,
2013-07-27 15:34:00,83.7,71.5,29.99,SW,225,8.7,8.7,67,0.00,CLR,,0.01,WeatherDisplay:10.37,2013-07-27 19:34:00,
2013-07-27 15:39:00,83.5,71.4,29.99,SSW,202,5.2,5.2,67,0.00,CLR,,0.01,WeatherDisplay:10.37,2013-07-27 19:39:00,
2013-07-27 15:44:00,83.5,70.9,29.99,SSW,202,8.5,8.5,66,0.00,CLR,,0.01,WeatherDisplay:10.37,2013-07-27 19:44:00,
2013-07-27 15:49:00,83.1,70.6,29.99,WSW,248,5.4,8.1,66,0.00,CLR,,0.01,WeatherDisplay:10.37,2013-07-27 19:49:00,
2013-07-27 15:54:00,82.9,70.9,29.99,SW,225,2.6,2.6,67,0.00,CLR,,0.01,WeatherDisplay:10.37,2013-07-27 19:54:00,
2013-07-27 15:59:00,83.5,71.4,29.99,SSW,202,1.8,4.6,67,0.00,CLR,,0.01,WeatherDisplay:10.37,2013-07-27 19:59:00,
2013-07-27 16:04:00,83.5,70.5,29.99,SSE,158,3.6,4.6,65,0.00,CLR,,0.01,WeatherDisplay:10.37,2013-07-27 20:04:00,
2013-07-27 16:09:00,83.1,70.6,29.99,SSE,158,2.2,5.8,66,0.00,CLR,,0.01,WeatherDisplay:10.37,2013-07-27 20:09:00,
2013-07-27 16:14:00,82.8,69.8,29.99,SSE,158,3.1,8.1,65,0.00,CLR,,0.01,WeatherDisplay:10.37,2013-07-27 20:14:00,
2013-07-27 16:19:00,82.8,70.2,29.99,SSW,202,1.6,6.9,66,0.00,CLR,,0.01,WeatherDisplay:10.37,2013-07-27 20:19:00,
2013-07-27 16:24:00,83.1,71.0,29.99,SSW,202,4.0,4.6,67,0.00,CLR,,0.01,WeatherDisplay:10.37,2013-07-27 20:24:00,
2013-07-27 16:29:00,83.7,70.6,29.99,South,180,6.9,6.9,65,0.00,CLR,,0.01,WeatherDisplay:10.37,2013-07-27 20:29:00,
2013-07-27 16:34:00,83.5,70.0,29.99,SW,225,9.2,11.5,64,0.00,CLR,,0.01,WeatherDisplay:10.37,2013-07-27 20:34:00,
2013-07-27 16:39:00,82.9,70.4,29.99,SW,225,3.3,4.6,66,0.00,CLR,,0.01,WeatherDisplay:10.37,2013-07-27 20:39:00,
2013-07-27 16:44:00,82.4,69.0,29.99,SSW,202,4.0,10.4,64,0.00,CLR,,0.01,WeatherDisplay:10.37,2013-07-27 20:44:00,
2013-07-27 16:49:00,82.0,69.6,29.99,South,180,5.4,6.9,66,0.00,CLR,,0.01,WeatherDisplay:10.37,2013-07-27 20:49:00,
2013-07-27 16:54:00,82.8,70.2,29.98,SSW,202,8.3,8.3,66,0.00,CLR,,0.01,WeatherDisplay:10.37,2013-07-27 20:54:00,
2013-07-27 16:59:00,82.9,70.9,29.99,SSW,202,0.7,4.6,67,0.00,CLR,,0.01,WeatherDisplay:10.37,2013-07-27 20:59:00,
2013-07-27 17:04:00,82.8,70.2,29.98,SSE,158,2.2,8.1,66,0.00,CLR,,0.01,WeatherDisplay:10.37,2013-07-27 21:04:00,
2013-07-27 17:09:00,82.4,69.4,29.98,South,180,4.7,6.9,65,0.00,CLR,,0.01,WeatherDisplay:10.37,2013-07-27 21:09:00,
2013-07-27 17:14:00,81.5,69.5,29.98,South,180,7.1,7.1,67,0.00,CLR,,0.01,WeatherDisplay:10.37,2013-07-27 21:14:00,
2013-07-27 17:19:00,81.0,69.0,29.98,SSW,202,2.4,6.9,67,0.00,CLR,,0.01,WeatherDisplay:10.37,2013-07-27 21:19:00,
2013-07-27 17:24:00,79.7,68.2,29.98,SSW,202,7.1,10.4,68,0.00,CLR,,0.01,WeatherDisplay:10.37,2013-07-27 21:24:00,
2013-07-27 17:29:00,79.2,68.5,29.98,WSW,248,4.9,4.9,70,0.00,CLR,,0.01,WeatherDisplay:10.37,2013-07-27 21:29:00,
2013-07-27 17:34:00,79.0,68.4,29.98,West,270,2.0,4.6,70,0.00,CLR,,0.01,WeatherDisplay:10.37,2013-07-27 21:34:00,
2013-07-27 17:39:00,78.8,68.2,29.98,SSW,202,1.1,6.9,70,0.00,CLR,,0.01,WeatherDisplay:10.37,2013-07-27 21:39:00,
2013-07-27 17:44:00,78.6,67.6,29.98,SSW,202,3.3,6.9,69,0.00,CLR,,0.01,WeatherDisplay:10.37,2013-07-27 21:44:00,
2013-07-27 17:49:00,78.4,67.8,29.98,WSW,248,3.3,3.5,70,0.00,CLR,,0.01,WeatherDisplay:10.37,2013-07-27 21:49:00,
2013-07-27 17:54:00,78.3,67.7,29.98,SSW,202,1.1,3.5,70,0.00,CLR,,0.01,WeatherDisplay:10.37,2013-07-27 21:54:00,
2013-07-27 17:59:00,77.7,66.7,29.98,SW,225,6.9,6.9,69,0.00,CLR,,0.01,WeatherDisplay:10.37,2013-07-27 21:59:00,
2013-07-27 18:04:00,77.0,66.0,29.98,South,180,4.7,8.1,69,0.00,CLR,,0.01,WeatherDisplay:10.37,2013-07-27 22:04:00,
2013-07-27 18:09:00,76.3,65.4,29.98,SSE,158,1.8,8.1,69,0.00,CLR,,0.01,WeatherDisplay:10.37,2013-07-27 22:09:00,
2013-07-27 18:14:00,75.7,65.7,29.98,SSW,202,3.3,4.6,71,0.00,CLR,,0.01,WeatherDisplay:10.37,2013-07-27 22:14:00,
2013-07-27 18:19:00,75.4,65.7,29.99,SW,225,6.0,6.0,72,0.00,CLR,,0.01,WeatherDisplay:10.37,2013-07-27 22:19:00,
2013-07-27 18:24:00,75.0,65.4,29.98,SSW,202,4.5,5.8,72,0.00,CLR,,0.01,WeatherDisplay:10.37,2013-07-27 22:24:00,
2013-07-27 18:29:00,75.0,65.8,29.98,South,180,3.3,4.6,73,0.00,CLR,,0.01,WeatherDisplay:10.37,2013-07-27 22:29:00,
2013-07-27 18:34:00,74.8,66.0,29.98,SSE,158,6.0,6.9,74,0.00,CLR,,0.01,WeatherDisplay:10.37,2013-07-27 22:34:00,
2013-07-27 18:39:00,74.8,66.0,29.98,SSE,158,0.7,1.1,74,0.00,CLR,,0.01,WeatherDisplay:10.37,2013-07-27 22:39:00,
2013-07-27 18:44:00,75.0,66.6,29.98,SW,225,4.9,4.9,75,0.00,CLR,,0.01,WeatherDisplay:10.37,2013-07-27 22:44:00,
2013-07-27 18:49:00,75.0,66.9,29.98,West,270,2.0,2.3,76,0.00,CLR,,0.01,WeatherDisplay:10.37,2013-07-27 22:49:00,
2013-07-27 18:54:00,74.8,66.8,29.98,South,180,1.8,5.8,76,0.00,CLR,,0.01,WeatherDisplay:10.37,2013-07-27 22:54:00,
2013-07-27 18:59:00,74.7,66.6,29.98,SSE,158,4.0,4.6,76,0.00,CLR,,0.01,WeatherDisplay:10.37,2013-07-27 22:59:00,
2013-07-27 19:04:00,74.3,66.6,29.99,South,180,3.3,5.8,77,0.00,CLR,,0.01,WeatherDisplay:10.37,2013-07-27 23:04:00,
2013-07-27 19:09:00,74.1,66.4,29.98,SSW,202,6.7,6.9,77,0.00,CLR,,0.01,WeatherDisplay:10.37,2013-07-27 23:09:00,
2013-07-27 19:14:00,73.9,66.6,29.99,SSW,202,3.1,4.6,78,0.00,CLR,,0.01,WeatherDisplay:10.37,2013-07-27 23:14:00,
2013-07-27 19:19:00,73.6,66.7,29.98,SSW,202,2.6,5.8,79,0.00,CLR,,0.01,WeatherDisplay:10.37,2013-07-27 23:19:00,
2013-07-27 19:24:00,73.4,66.5,29.99,SW,225,5.4,5.4,79,0.00,CLR,,0.01,WeatherDisplay:10.37,2013-07-27 23:24:00,
2013-07-27 19:29:00,73.2,66.7,29.99,SW,225,2.6,4.6,80,0.00,CLR,,0.01,WeatherDisplay:10.37,2013-07-27 23:29:00,
2013-07-27 19:34:00,72.7,66.5,29.98,SSW,202,3.1,5.8,81,0.00,CLR,,0.01,WeatherDisplay:10.37,2013-07-27 23:34:00,
2013-07-27 19:39:00,72.5,66.0,29.98,SSW,202,0.9,1.1,80,0.00,CLR,,0.01,WeatherDisplay:10.37,2013-07-27 23:39:00,
2013-07-27 19:44:00,72.3,65.8,29.98,SSW,202,1.1,1.1,80,0.00,CLR,,0.01,WeatherDisplay:10.37,2013-07-27 23:44:00,
2013-07-27 19:45:00,72.1,65.6,29.98,SW,225,1.1,2.3,80,0.00,CLR,,0.01,WeatherDisplay:10.37,2013-07-27 23:45:00,
2013-07-27 19:50:00,72.0,65.5,29.98,SW,225,1.1,3.5,80,0.00,CLR,,0.01,WeatherDisplay:10.37,2013-07-27 23:50:00,
2013-07-27 19:55:00,71.6,65.1,29.98,WSW,248,0.2,1.1,80,0.00,CLR,,0.01,WeatherDisplay:10.37,2013-07-27 23:55:00,
2013-07-27 20:00:00,71.2,64.8,29.98,SW,225,1.6,2.3,80,0.00,CLR,,0.01,WeatherDisplay:10.37,2013-07-28 00:00:00,
2013-07-27 20:05:00,71.1,64.6,29.98,SSW,202,0.5,1.1,80,0.00,CLR,,0.01,WeatherDisplay:10.37,2013-07-28 00:05:00,
2013-07-27 20:10:00,70.9,64.8,29.98,SSW,202,2.6,2.6,81,0.00,CLR,,0.01,WeatherDisplay:10.37,2013-07-28 00:10:00,
2013-07-27 20:15:00,70.5,64.4,29.99,South,180,0.7,2.3,81,0.00,CLR,,0.01,WeatherDisplay:10.37,2013-07-28 00:15:00,
2013-07-27 20:20:00,70.3,64.6,29.99,SSW,202,0.9,2.3,82,0.00,CLR,,0.01,WeatherDisplay:10.37,2013-07-28 00:20:00,
2013-07-27 20:25:00,70.2,64.4,29.99,South,180,0.9,1.1,82,0.00,CLR,,0.01,WeatherDisplay:10.37,2013-07-28 00:25:00,
2013-07-27 20:30:00,70.2,64.8,29.99,SW,225,2.2,2.3,83,0.00,CLR,,0.01,WeatherDisplay:10.37,2013-07-28 00:30:00,
2013-07-27 20:35:00,70.2,65.1,30.00,South,180,1.1,2.3,84,0.00,CLR,,0.01,WeatherDisplay:10.37,2013-07-28 00:35:00,
2013-07-27 20:40:00,70.2,65.1,29.99,SSW,202,0.7,2.3,84,0.00,CLR,,0.01,WeatherDisplay:10.37,2013-07-28 00:40:00,
2013-07-27 20:45:00,70.3,65.3,29.99,SW,225,2.4,3.5,84,0.00,CLR,,0.01,WeatherDisplay:10.37,2013-07-28 00:45:00,
2013-07-27 20:50:00,70.2,65.1,30.00,SE,135,1.4,3.5,84,0.00,CLR,,0.01,WeatherDisplay:10.37,2013-07-28 00:50:00,
2013-07-27 20:55:00,70.2,65.1,29.99,SW,225,2.0,2.3,84,0.00,CLR,,0.01,WeatherDisplay:10.37,2013-07-28 00:55:00,
2013-07-27 21:00:00,70.2,65.1,30.00,SW,225,1.4,2.3,84,0.00,CLR,,0.01,WeatherDisplay:10.37,2013-07-28 01:00:00,
2013-07-27 21:05:00,70.2,65.1,29.99,SSW,202,0.5,0.5,84,0.00,CLR,,0.01,WeatherDisplay:10.37,2013-07-28 01:05:00,
2013-07-27 21:10:00,70.2,65.1,30.00,SSW,202,1.4,1.4,84,0.00,CLR,,0.01,WeatherDisplay:10.37,2013-07-28 01:10:00,
2013-07-27 21:15:00,70.0,64.9,29.99,SW,225,0.7,1.1,84,0.00,CLR,,0.01,WeatherDisplay:10.37,2013-07-28 01:15:00,
2013-07-27 21:20:00,70.0,64.9,29.99,South,180,0.5,2.3,84,0.00,CLR,,0.01,WeatherDisplay:10.37,2013-07-28 01:20:00,
2013-07-27 21:25:00,70.0,64.9,30.00,WSW,248,2.9,2.9,84,0.00,CLR,,0.01,WeatherDisplay:10.37,2013-07-28 01:25:00,
2013-07-27 21:30:00,70.0,64.9,30.00,SSE,158,2.6,2.6,84,0.00,CLR,,0.01,WeatherDisplay:10.37,2013-07-28 01:30:00,
2013-07-27 21:35:00,70.0,65.3,29.99,SSW,202,1.4,3.5,85,0.00,CLR,,0.01,WeatherDisplay:10.37,2013-07-28 01:35:00,
2013-07-27 21:40:00,70.0,65.3,29.99,South,180,0.7,2.3,85,0.00,CLR,,0.01,WeatherDisplay:10.37,2013-07-28 01:40:00,
2013-07-27 21:45:00,70.2,65.4,30.00,South,180,1.1,1.1,85,0.00,CLR,,0.01,WeatherDisplay:10.37,2013-07-28 01:45:00,
2013-07-27 21:50:00,70.2,65.4,29.99,South,180,0.9,1.1,85,0.00,CLR,,0.01,WeatherDisplay:10.37,2013-07-28 01:50:00,
2013-07-27 21:55:00,70.3,66.0,29.99,South,180,2.6,2.6,86,0.00,CLR,,0.01,WeatherDisplay:10.37,2013-07-28 01:55:00,
2013-07-27 22:00:00,70.5,66.1,29.98,SSE,158,0.5,2.3,86,0.00,CLR,,0.01,WeatherDisplay:10.37,2013-07-28 02:00:00,
2013-07-27 22:05:00,70.5,66.1,29.99,SSE,158,0.7,1.1,86,0.00,CLR,,0.01,WeatherDisplay:10.37,2013-07-28 02:05:00,
2013-07-27 22:10:00,70.5,66.1,29.98,SE,135,2.2,2.3,86,0.00,CLR,,0.01,WeatherDisplay:10.37,2013-07-28 02:10:00,
2013-07-27 22:15:00,70.5,66.1,29.98,SSE,158,0.2,1.1,86,0.00,CLR,,0.01,WeatherDisplay:10.37,2013-07-28 02:15:00,
2013-07-27 22:20:00,70.5,66.1,29.98,South,180,0.7,1.1,86,0.00,CLR,,0.01,WeatherDisplay:10.37,2013-07-28 02:20:00,
2013-07-27 22:25:00,70.7,66.3,29.98,SSW,202,0.5,2.3,86,0.00,CLR,,0.01,WeatherDisplay:10.37,2013-07-28 02:25:00,
2013-07-27 22:30:00,70.9,66.5,29.97,SSE,158,2.0,2.0,86,0.00,CLR,,0.01,WeatherDisplay:10.37,2013-07-28 02:30:00,
2013-07-27 22:35:00,70.9,66.5,29.98,SSW,202,0.9,2.3,86,0.00,CLR,,0.01,WeatherDisplay:10.37,2013-07-28 02:35:00,
2013-07-27 22:40:00,71.1,66.7,29.97,South,180,0.2,2.3,86,0.00,CLR,,0.01,WeatherDisplay:10.37,2013-07-28 02:40:00,
2013-07-27 22:45:00,71.2,67.2,29.97,ENE,68,0.5,1.1,87,0.00,CLR,,0.01,WeatherDisplay:10.37,2013-07-28 02:45:00,
2013-07-27 22:50:00,71.2,67.2,29.97,NNE,22,0.0,1.1,87,0.00,CLR,,0.01,WeatherDisplay:10.37,2013-07-28 02:50:00,
2013-07-27 22:55:00,71.4,67.0,29.96,SSE,158,2.9,2.9,86,0.00,CLR,,0.01,WeatherDisplay:10.37,2013-07-28 02:55:00,
2013-07-27 23:00:00,71.4,67.0,29.96,SE,135,0.5,1.1,86,0.00,CLR,,0.01,WeatherDisplay:10.37,2013-07-28 03:00:00,
2013-07-27 23:05:00,71.4,67.0,29.96,ESE,112,1.1,1.1,86,0.00,CLR,,0.01,WeatherDisplay:10.37,2013-07-28 03:05:00,
2013-07-27 23:10:00,71.6,67.2,29.96,SSE,158,1.8,2.3,86,0.00,CLR,,0.01,WeatherDisplay:10.37,2013-07-28 03:10:00,
2013-07-27 23:15:00,71.4,67.0,29.96,East,90,0.5,1.1,86,0.00,CLR,,0.01,WeatherDisplay:10.37,2013-07-28 03:15:00,
2013-07-27 23:20:00,71.4,67.0,29.96,SSE,158,0.9,0.9,86,0.00,CLR,,0.01,WeatherDisplay:10.37,2013-07-28 03:20:00,
2013-07-27 23:25:00,71.4,67.0,29.96,ESE,112,0.5,1.1,86,0.00,CLR,,0.01,WeatherDisplay:10.37,2013-07-28 03:25:00,
2013-07-27 23:30:00,71.4,67.0,29.96,ESE,112,0.0,0.0,86,0.00,CLR,,0.01,WeatherDisplay:10.37,2013-07-28 03:30:00,
2013-07-27 23:35:00,71.2,66.8,29.96,East,90,0.0,1.1,86,0.00,CLR,,0.01,WeatherDisplay:10.37,2013-07-28 03:35:00,
2013-07-27 23:40:00,71.2,66.8,29.96,East,90,0.0,0.0,86,0.00,CLR,,0.01,WeatherDisplay:10.37,2013-07-28 03:40:00,
2013-07-27 23:45:00,71.2,66.8,29.96,East,90,0.5,0.5,86,0.00,CLR,,0.01,WeatherDisplay:10.37,2013-07-28 03:45:00,
2013-07-27 23:50:00,71.2,66.8,29.96,East,90,0.0,0.0,86,0.00,CLR,,0.01,WeatherDisplay:10.37,2013-07-28 03:50:00,
2013-07-27 23:55:00,71.4,67.0,29.96,East,90,0.2,1.1,86,0.00,CLR,,0.01,WeatherDisplay:10.37,2013-07-28 03:55:00,